createdAt,value
2017-10-11T00:01:17.032Z,16.55
2017-10-11T00:03:43.520Z,17.87
2017-10-11T00:06:09.954Z,18.02
2017-10-11T00:08:36.789Z,12.50
2017-10-11T00:11:03.593Z,17.77
2017-10-11T00:13:31.143Z,17.92
2017-10-11T00:15:58.784Z,15.13
2017-10-11T00:18:25.550Z,17.95
2017-10-11T00:20:53.042Z,20.48
2017-10-11T00:23:19.875Z,15.77
2017-10-11T00:25:47.891Z,16.33
2017-10-11T00:28:14.099Z,16.87
2017-10-11T00:30:40.342Z,13.85
2017-10-11T00:33:06.884Z,15.20
2017-10-11T00:35:33.901Z,16.20
2017-10-11T00:38:00.120Z,15.48
2017-10-11T00:40:27.066Z,15.85
2017-10-11T00:42:54.114Z,16.75
2017-10-11T00:45:20.917Z,15.00
2017-10-11T00:47:48.204Z,14.10
2017-10-11T00:50:15.774Z,15.20
2017-10-11T00:52:42.392Z,13.10
2017-10-11T00:55:10.077Z,14.30
2017-10-11T00:57:37.027Z,12.23
2017-10-11T01:00:04.584Z,11.02
2017-10-11T01:02:32.232Z,9.93
2017-10-11T01:04:59.760Z,11.75
2017-10-11T01:07:27.270Z,13.77
2017-10-11T01:09:54.789Z,12.52
2017-10-11T01:12:21.017Z,13.18
2017-10-11T01:14:47.269Z,12.02
2017-10-11T01:17:13.549Z,10.05
2017-10-11T01:19:40.264Z,9.52
2017-10-11T01:22:08.145Z,11.65
2017-10-11T01:24:35.167Z,9.32
2017-10-11T01:27:01.940Z,11.68
2017-10-11T01:29:29.005Z,13.18
2017-10-11T01:31:56.056Z,13.18
2017-10-11T01:34:23.856Z,13.45
2017-10-11T01:36:51.003Z,12.82
2017-10-11T01:39:17.816Z,9.90
2017-10-11T01:41:45.512Z,14.13
2017-10-11T01:44:13.235Z,14.98
2017-10-11T01:46:40.622Z,13.10
2017-10-11T01:49:07.153Z,12.10
2017-10-11T01:51:34.287Z,9.85
2017-10-11T01:54:01.827Z,10.65
2017-10-11T01:56:29.047Z,13.05
2017-10-11T01:58:56.580Z,15.57
2017-10-11T02:01:22.995Z,14.55
2017-10-11T02:03:50.409Z,14.23
2017-10-11T02:06:17.468Z,12.05
2017-10-11T02:08:45.068Z,15.25
2017-10-11T02:11:11.389Z,16.77
2017-10-11T02:13:37.734Z,14.40
2017-10-11T02:16:04.507Z,18.40
2017-10-11T02:18:31.726Z,13.52
2017-10-11T02:20:58.957Z,16.33
2017-10-11T02:23:25.908Z,17.70
2017-10-11T02:25:52.842Z,13.00
2017-10-11T02:28:20.916Z,17.83
2017-10-11T02:30:48.125Z,14.05
2017-10-11T02:33:14.396Z,10.77
2017-10-11T02:35:41.148Z,13.80
2017-10-11T02:38:07.548Z,19.65
2017-10-11T02:40:35.594Z,15.65
2017-10-11T02:43:02.344Z,14.35
2017-10-11T02:45:28.940Z,17.83
2017-10-11T02:47:55.649Z,13.50
2017-10-11T02:50:22.698Z,13.00
2017-10-11T02:52:48.931Z,17.70
2017-10-11T02:55:15.732Z,16.45
2017-10-11T02:57:42.499Z,14.63
2017-10-11T03:00:09.462Z,17.90
2017-10-11T03:02:36.582Z,17.52
2017-10-11T03:05:02.966Z,15.48
2017-10-11T03:07:30.296Z,12.73
2017-10-11T03:09:56.520Z,14.95
2017-10-11T03:12:23.744Z,14.65
2017-10-11T03:14:51.589Z,12.43
2017-10-11T03:17:19.704Z,18.27
2017-10-11T03:19:45.934Z,17.55
2017-10-11T03:22:12.728Z,15.10
2017-10-11T03:24:40.665Z,13.82
2017-10-11T03:27:07.481Z,14.15
2017-10-11T03:29:33.675Z,16.62
2017-10-11T03:32:00.263Z,15.50
2017-10-11T03:34:27.348Z,18.85
2017-10-11T03:36:54.571Z,18.65
2017-10-11T03:39:21.189Z,17.92
2017-10-11T03:41:47.475Z,18.48
2017-10-11T03:44:13.903Z,15.32
2017-10-11T03:46:40.864Z,17.62
2017-10-11T03:49:08.437Z,13.90
2017-10-11T03:51:37.436Z,10.57
2017-10-11T03:54:03.635Z,13.13
2017-10-11T03:56:29.931Z,11.12
2017-10-11T03:58:57.189Z,13.93
2017-10-11T04:01:23.390Z,18.65
2017-10-11T04:03:50.140Z,14.18
2017-10-11T04:06:16.586Z,14.02
2017-10-11T04:08:44.626Z,15.75
2017-10-11T04:11:11.417Z,18.27
2017-10-11T04:13:37.624Z,16.35
2017-10-11T04:16:04.473Z,18.65
2017-10-11T04:18:31.394Z,19.67
2017-10-11T04:20:58.530Z,18.37
2017-10-11T04:23:25.599Z,17.33
2017-10-11T04:25:52.328Z,15.25
2017-10-11T04:28:19.230Z,18.83
2017-10-11T04:30:46.217Z,16.65
2017-10-11T04:33:13.198Z,22.02
2017-10-11T04:35:40.147Z,13.40
2017-10-11T04:38:06.421Z,16.85
2017-10-11T04:40:33.102Z,16.55
2017-10-11T04:43:00.018Z,18.45
2017-10-11T04:45:27.424Z,14.45
2017-10-11T04:47:54.846Z,17.15
2017-10-11T04:50:22.604Z,18.33
2017-10-11T04:52:48.833Z,15.00
2017-10-11T04:55:15.069Z,15.43
2017-10-11T04:57:41.900Z,12.82
2017-10-11T05:00:08.158Z,19.60
2017-10-11T05:02:34.973Z,14.05
2017-10-11T05:05:02.951Z,18.77
2017-10-11T05:07:29.204Z,16.45
2017-10-11T05:09:56.214Z,15.10
2017-10-11T05:12:23.024Z,15.10
2017-10-11T05:14:49.229Z,17.73
2017-10-11T05:17:16.261Z,17.77
2017-10-11T05:19:43.137Z,17.30
2017-10-11T05:22:10.228Z,13.88
2017-10-11T05:24:36.487Z,18.02
2017-10-11T05:27:03.900Z,15.93
2017-10-11T05:29:30.117Z,13.00
2017-10-11T05:31:56.327Z,17.55
2017-10-11T05:34:22.543Z,14.68
2017-10-11T05:36:48.766Z,15.35
2017-10-11T05:39:15.636Z,17.08
2017-10-11T05:41:42.506Z,16.20
2017-10-11T05:44:09.967Z,14.77
2017-10-11T05:46:36.862Z,17.23
2017-10-11T05:49:03.127Z,18.37
2017-10-11T05:51:29.473Z,16.20
2017-10-11T05:53:56.392Z,16.20
2017-10-11T05:56:23.492Z,16.10
2017-10-11T05:58:50.620Z,19.10
2017-10-11T06:01:19.521Z,15.10
2017-10-11T06:03:47.192Z,17.48
2017-10-11T06:06:14.164Z,14.13
2017-10-11T06:08:41.368Z,17.10
2017-10-11T06:11:07.649Z,13.82
2017-10-11T06:13:35.719Z,15.95
2017-10-11T06:16:03.323Z,15.45
2017-10-11T06:18:30.125Z,13.25
2017-10-11T06:20:56.907Z,15.43
2017-10-11T06:23:23.725Z,12.82
2017-10-11T06:25:50.126Z,12.73
2017-10-11T06:28:17.785Z,13.68
2017-10-11T06:30:44.385Z,16.95
2017-10-11T06:33:10.725Z,15.77
2017-10-11T06:35:36.941Z,12.80
2017-10-11T06:38:03.447Z,14.80
2017-10-11T06:40:31.472Z,19.35
2017-10-11T06:42:58.828Z,18.52
2017-10-11T06:45:25.829Z,17.80
2017-10-11T06:47:52.160Z,15.18
2017-10-11T06:50:18.450Z,18.37
2017-10-11T06:52:45.917Z,16.65
2017-10-11T06:55:12.184Z,17.62
2017-10-11T06:57:38.577Z,18.40
2017-10-11T07:00:05.632Z,15.38
2017-10-11T07:02:32.535Z,14.30
2017-10-11T07:05:00.323Z,16.58
2017-10-11T07:07:28.054Z,18.70
2017-10-11T07:09:54.537Z,16.83
2017-10-11T07:12:20.829Z,13.02
2017-10-11T07:14:48.662Z,16.15
2017-10-11T07:17:14.876Z,15.52
2017-10-11T07:19:41.113Z,16.60
2017-10-11T07:22:07.756Z,16.62
2017-10-11T07:24:34.256Z,17.02
2017-10-11T07:27:01.776Z,16.10
2017-10-11T07:29:28.013Z,15.50
2017-10-11T07:31:55.147Z,15.80
2017-10-11T07:34:22.801Z,13.32
2017-10-11T07:36:49.570Z,15.43
2017-10-11T07:39:16.137Z,13.27
2017-10-11T07:41:43.476Z,15.80
2017-10-11T07:44:10.736Z,14.48
2017-10-11T07:46:37.314Z,15.07
2017-10-11T07:49:05.499Z,16.00
2017-10-11T07:51:32.478Z,14.38
2017-10-11T07:53:59.365Z,13.85
2017-10-11T07:56:25.699Z,13.62
2017-10-11T07:58:51.921Z,13.80
2017-10-11T08:01:18.164Z,12.80
2017-10-11T08:03:44.587Z,12.25
2017-10-11T08:06:12.251Z,15.18
2017-10-11T08:08:39.383Z,17.42
2017-10-11T08:11:06.309Z,13.63
2017-10-11T08:13:34.055Z,15.23
2017-10-11T08:16:00.408Z,13.83
2017-10-11T08:18:26.845Z,15.57
2017-10-11T08:20:53.729Z,15.50
2017-10-11T08:23:19.998Z,10.97
2017-10-11T08:25:46.233Z,9.60
2017-10-11T08:28:12.615Z,10.57
2017-10-11T08:30:39.603Z,9.52
2017-10-11T08:33:05.830Z,8.57
2017-10-11T08:35:33.104Z,9.87
2017-10-11T08:37:59.318Z,9.70
2017-10-11T08:40:25.551Z,9.25
2017-10-11T08:42:53.356Z,8.85
2017-10-11T08:45:20.339Z,7.80
2017-10-11T08:47:46.834Z,8.15
2017-10-11T08:50:13.810Z,7.12
2017-10-11T08:52:40.054Z,7.80
2017-10-11T08:55:07.506Z,7.22
2017-10-11T08:57:33.752Z,8.13
2017-10-11T09:00:00.532Z,8.25
2017-10-11T09:02:27.466Z,7.60
2017-10-11T09:04:55.242Z,6.10
2017-10-11T09:07:21.883Z,8.40
2017-10-11T09:09:48.878Z,8.20
2017-10-11T09:12:15.619Z,8.87
2017-10-11T09:14:41.838Z,9.37
2017-10-11T09:17:08.061Z,8.07
2017-10-11T09:19:34.289Z,7.53
2017-10-11T09:22:00.880Z,7.43
2017-10-11T09:24:27.871Z,7.33
2017-10-11T09:26:54.099Z,8.43
2017-10-11T09:29:21.100Z,7.57
2017-10-11T09:31:48.629Z,6.87
2017-10-11T09:34:14.848Z,7.27
2017-10-11T09:36:41.069Z,7.23
2017-10-11T09:39:07.934Z,6.13
2017-10-11T09:41:34.157Z,7.43
2017-10-11T09:44:00.390Z,6.53
2017-10-11T09:46:26.600Z,7.40
2017-10-11T09:48:54.334Z,7.70
2017-10-11T09:51:21.848Z,7.90
2017-10-11T09:53:48.589Z,6.43
2017-10-11T09:56:15.359Z,7.20
2017-10-11T09:58:42.427Z,6.17
2017-10-11T10:01:09.193Z,7.20
2017-10-11T10:03:36.233Z,7.23
2017-10-11T10:06:03.133Z,6.73
2017-10-11T10:08:30.216Z,6.43
2017-10-11T10:10:56.768Z,7.20
2017-10-11T10:13:23.704Z,7.63
2017-10-11T10:15:50.922Z,6.23
2017-10-11T10:18:17.847Z,6.30
2017-10-11T10:20:44.075Z,6.67
2017-10-11T10:23:10.392Z,7.40
2017-10-11T10:25:36.679Z,7.10
2017-10-11T10:28:03.450Z,6.80
2017-10-11T10:30:38.303Z,6.67
2017-10-11T10:33:05.230Z,7.00
2017-10-11T10:35:33.640Z,7.33
2017-10-11T10:38:01.255Z,7.20
2017-10-11T10:40:27.985Z,6.43
2017-10-11T10:42:55.633Z,6.67
2017-10-11T10:45:23.078Z,6.70
2017-10-11T10:47:50.284Z,6.67
2017-10-11T10:50:16.535Z,6.53
2017-10-11T10:52:44.081Z,7.20
2017-10-11T10:55:10.799Z,7.07
2017-10-11T10:57:37.126Z,7.73
2017-10-11T11:00:03.884Z,6.17
2017-10-11T11:02:30.250Z,7.43
2017-10-11T11:04:58.627Z,7.37
2017-10-11T11:07:25.835Z,6.83
2017-10-11T11:09:53.168Z,8.00
2017-10-11T11:12:20.866Z,8.10
2017-10-11T11:14:47.348Z,7.70
2017-10-11T11:17:17.459Z,8.87
2017-10-11T11:19:43.695Z,6.93
2017-10-11T11:22:10.209Z,7.60
2017-10-11T11:24:37.435Z,6.70
2017-10-11T11:27:04.763Z,8.17
2017-10-11T11:29:31.353Z,5.43
2017-10-11T11:31:58.528Z,7.00
2017-10-11T11:34:25.868Z,6.20
2017-10-11T11:36:52.501Z,5.87
2017-10-11T11:39:20.544Z,6.67
2017-10-11T11:41:47.593Z,6.50
2017-10-11T11:44:15.505Z,6.23
2017-10-11T11:46:42.520Z,6.43
2017-10-11T11:49:09.490Z,7.37
2017-10-11T11:51:35.927Z,6.40
2017-10-11T11:54:02.660Z,6.60
2017-10-11T11:56:31.400Z,5.60
2017-10-11T11:58:58.234Z,5.40
2017-10-11T12:01:25.249Z,7.40
2017-10-11T12:03:51.999Z,6.00
2017-10-11T12:06:18.683Z,6.33
2017-10-11T12:08:45.767Z,6.57
2017-10-11T12:11:12.912Z,6.43
2017-10-11T12:13:39.920Z,6.63
2017-10-11T12:16:07.342Z,6.20
2017-10-11T12:18:35.266Z,6.60
2017-10-11T12:21:01.481Z,6.87
2017-10-11T12:23:28.432Z,6.50
2017-10-11T12:25:54.848Z,6.87
2017-10-11T12:28:21.877Z,6.90
2017-10-11T12:30:48.080Z,6.90
2017-10-11T12:33:15.647Z,6.67
2017-10-11T12:35:42.439Z,6.67
2017-10-11T12:38:08.671Z,5.97
2017-10-11T12:40:34.877Z,6.60
2017-10-11T12:43:02.387Z,5.90
2017-10-11T12:45:29.450Z,6.40
2017-10-11T12:47:55.716Z,6.07
2017-10-11T12:50:22.680Z,6.13
2017-10-11T12:52:50.050Z,6.43
2017-10-11T12:55:17.222Z,5.77
2017-10-11T12:57:43.853Z,5.90
2017-10-11T13:00:11.002Z,6.87
2017-10-11T13:02:38.638Z,6.20
2017-10-11T13:05:05.185Z,5.40
2017-10-11T13:07:31.829Z,5.47
2017-10-11T13:09:59.457Z,6.10
2017-10-11T13:12:26.425Z,5.50
2017-10-11T13:14:53.330Z,5.23
2017-10-11T13:17:20.315Z,4.90
2017-10-11T13:19:46.537Z,5.40
2017-10-11T13:22:12.953Z,5.10
2017-10-11T13:24:40.221Z,5.80
2017-10-11T13:27:07.584Z,5.37
2017-10-11T13:29:33.803Z,5.10
2017-10-11T13:32:01.014Z,5.90
2017-10-11T13:34:27.341Z,5.40
2017-10-11T13:36:53.650Z,5.40
2017-10-11T13:39:20.210Z,6.20
2017-10-11T13:41:47.734Z,5.70
2017-10-11T13:44:14.354Z,5.77
2017-10-11T13:46:41.187Z,4.23
2017-10-11T13:49:07.421Z,5.70
2017-10-11T13:51:33.612Z,5.17
2017-10-11T13:54:00.684Z,6.20
2017-10-11T13:56:27.485Z,4.37
2017-10-11T13:58:53.978Z,5.00
2017-10-11T14:01:20.245Z,5.60
2017-10-11T14:03:54.489Z,5.17
2017-10-11T14:06:21.738Z,5.17
2017-10-11T14:08:48.205Z,5.10
2017-10-11T14:11:14.461Z,5.00
2017-10-11T14:13:41.388Z,3.93
2017-10-11T14:16:08.488Z,5.20
2017-10-11T14:18:35.476Z,5.23
2017-10-11T14:21:02.753Z,4.33
2017-10-11T14:23:29.245Z,4.20
2017-10-11T14:25:56.815Z,4.40
2017-10-11T14:28:23.107Z,4.13
2017-10-11T14:30:51.118Z,4.57
2017-10-11T14:33:17.509Z,4.50
2017-10-11T14:35:43.744Z,4.40
2017-10-11T14:38:11.363Z,4.70
2017-10-11T14:40:37.853Z,3.67
2017-10-11T14:43:04.957Z,4.73
2017-10-11T14:45:31.991Z,4.60
2017-10-11T14:47:58.925Z,4.10
2017-10-11T14:50:26.071Z,4.40
2017-10-11T14:52:52.305Z,4.60
2017-10-11T14:55:19.322Z,4.37
2017-10-11T14:57:47.503Z,3.90
2017-10-11T15:00:13.769Z,5.60
2017-10-11T15:02:40.989Z,4.80
2017-10-11T15:05:08.137Z,5.17
2017-10-11T15:07:34.948Z,4.97
2017-10-11T15:10:02.973Z,4.57
2017-10-11T15:12:29.220Z,4.40
2017-10-11T15:14:56.220Z,4.30
2017-10-11T15:17:22.461Z,3.60
2017-10-11T15:19:48.871Z,4.77
2017-10-11T15:22:15.247Z,4.50
2017-10-11T15:24:42.372Z,4.30
2017-10-11T15:27:08.640Z,3.90
2017-10-11T15:29:35.410Z,4.20
2017-10-11T15:32:03.436Z,5.63
2017-10-11T15:34:30.082Z,4.50
2017-10-11T15:36:57.129Z,4.63
2017-10-11T15:39:23.411Z,4.93
2017-10-11T15:41:49.721Z,4.73
2017-10-11T15:44:16.487Z,5.13
2017-10-11T15:46:42.709Z,5.03
2017-10-11T15:49:09.346Z,5.53
2017-10-11T15:51:36.191Z,4.60
2017-10-11T15:54:02.512Z,4.47
2017-10-11T15:56:29.209Z,4.87
2017-10-11T15:58:56.284Z,5.73
2017-10-11T16:01:22.805Z,5.20
2017-10-11T16:03:49.903Z,4.93
2017-10-11T16:06:16.724Z,5.07
2017-10-11T16:08:44.060Z,5.30
2017-10-11T16:11:10.741Z,6.10
2017-10-11T16:13:37.167Z,4.97
2017-10-11T16:16:04.577Z,6.30
2017-10-11T16:18:31.623Z,5.57
2017-10-11T16:20:59.118Z,4.80
2017-10-11T16:23:26.157Z,6.80
2017-10-11T16:25:52.373Z,5.67
2017-10-11T16:28:18.840Z,6.00
2017-10-11T16:30:45.871Z,7.60
2017-10-11T16:33:12.760Z,6.83
2017-10-11T16:35:39.029Z,6.23
2017-10-11T16:38:05.846Z,7.33
2017-10-11T16:40:32.958Z,7.77
2017-10-11T16:42:59.360Z,7.50
2017-10-11T16:45:26.828Z,5.67
2017-10-11T16:47:55.214Z,5.60
2017-10-11T16:50:21.472Z,7.40
2017-10-11T16:52:48.449Z,9.07
2017-10-11T16:55:15.488Z,12.73
2017-10-11T16:57:42.384Z,9.10
2017-10-11T17:00:09.034Z,9.80
2017-10-11T17:02:36.088Z,9.07
2017-10-11T17:05:02.311Z,7.20
2017-10-11T17:07:28.887Z,7.60
2017-10-11T17:09:57.377Z,8.90
2017-10-11T17:12:24.213Z,8.37
2017-10-11T17:14:50.926Z,8.77
2017-10-11T17:17:18.104Z,8.50
2017-10-11T17:19:45.883Z,9.17
2017-10-11T17:22:12.489Z,8.13
2017-10-11T17:24:38.826Z,7.33
2017-10-11T17:27:06.064Z,8.67
2017-10-11T17:29:33.682Z,9.40
2017-10-11T17:32:00.527Z,8.90
2017-10-11T17:34:27.276Z,11.30
2017-10-11T17:36:53.968Z,9.35
2017-10-11T17:39:20.599Z,10.25
2017-10-11T17:41:48.348Z,8.02
2017-10-11T17:44:15.814Z,9.73
2017-10-11T17:46:42.110Z,10.32
2017-10-11T17:49:09.716Z,8.40
2017-10-11T17:51:36.518Z,9.63
2017-10-11T17:54:05.307Z,9.30
2017-10-11T17:56:32.504Z,11.12
2017-10-11T17:58:58.874Z,11.10
2017-10-11T18:01:25.356Z,9.95
2017-10-11T18:03:53.297Z,10.80
2017-10-11T18:06:20.165Z,9.45
2017-10-11T18:08:46.484Z,11.57
2017-10-11T18:11:13.872Z,9.98
2017-10-11T18:13:40.744Z,11.75
2017-10-11T18:16:07.029Z,8.20
2017-10-11T18:18:33.305Z,11.30
2017-10-11T18:20:59.532Z,12.48
2017-10-11T18:23:25.777Z,10.32
2017-10-11T18:25:52.026Z,9.18
2017-10-11T18:28:19.392Z,9.90
2017-10-11T18:30:45.713Z,9.48
2017-10-11T18:33:12.030Z,9.50
2017-10-11T18:35:39.000Z,9.35
2017-10-11T18:38:05.265Z,9.13
2017-10-11T18:40:31.864Z,10.85
2017-10-11T18:42:59.126Z,12.07
2017-10-11T18:45:25.677Z,13.90
2017-10-11T18:47:52.007Z,12.98
2017-10-11T18:50:18.363Z,11.45
2017-10-11T18:52:44.626Z,13.35
2017-10-11T18:55:10.942Z,12.13
2017-10-11T18:57:37.961Z,9.85
2017-10-11T19:00:04.825Z,11.57
2017-10-11T19:02:31.729Z,9.80
2017-10-11T19:04:58.216Z,11.05
2017-10-11T19:07:25.245Z,10.65
2017-10-11T19:09:52.498Z,14.13
2017-10-11T19:12:19.897Z,12.95
2017-10-11T19:14:47.259Z,13.62
2017-10-11T19:17:14.548Z,15.70
2017-10-11T19:19:41.101Z,17.50
2017-10-11T19:22:08.128Z,16.92
2017-10-11T19:24:34.391Z,17.08
2017-10-11T19:27:02.083Z,14.18
2017-10-11T19:29:29.005Z,14.52
2017-10-11T19:31:55.995Z,12.10
2017-10-11T19:34:22.244Z,10.43
2017-10-11T19:36:49.511Z,9.07
2017-10-11T19:39:16.354Z,11.55
2017-10-11T19:41:42.933Z,15.05
2017-10-11T19:44:10.643Z,14.63
2017-10-11T19:46:36.898Z,12.23
2017-10-11T19:49:03.844Z,11.70
2017-10-11T19:51:31.161Z,10.93
2017-10-11T19:53:58.216Z,14.43
2017-10-11T19:56:24.586Z,12.30
2017-10-11T19:58:52.289Z,13.05
2017-10-11T20:01:18.644Z,11.23
2017-10-11T20:03:45.510Z,11.90
2017-10-11T20:06:12.609Z,11.88
2017-10-11T20:08:39.457Z,11.30
2017-10-11T20:11:05.693Z,15.30
2017-10-11T20:13:31.911Z,12.70
2017-10-11T20:15:58.387Z,15.93
2017-10-11T20:18:26.051Z,13.30
2017-10-11T20:20:53.537Z,14.98
2017-10-11T20:23:19.852Z,15.18
2017-10-11T20:25:46.147Z,13.82
2017-10-11T20:28:12.499Z,14.90
2017-10-11T20:30:39.888Z,16.58
2017-10-11T20:33:06.888Z,12.05
2017-10-11T20:35:35.311Z,15.43
2017-10-11T20:38:01.561Z,15.55
2017-10-11T20:40:27.854Z,12.57
2017-10-11T20:42:54.077Z,12.10
2017-10-11T20:45:20.290Z,14.82
2017-10-11T20:47:47.322Z,12.70
2017-10-11T20:50:14.402Z,14.30
2017-10-11T20:52:41.241Z,13.82
2017-10-11T20:55:08.411Z,15.02
2017-10-11T20:57:35.285Z,12.85
2017-10-11T21:00:02.354Z,13.48
2017-10-11T21:02:30.029Z,13.60
2017-10-11T21:04:57.580Z,10.77
2017-10-11T21:07:25.415Z,9.05
2017-10-11T21:09:53.390Z,10.93
2017-10-11T21:12:20.122Z,8.95
2017-10-11T21:14:46.899Z,10.48
2017-10-11T21:17:14.197Z,9.55
2017-10-11T21:19:41.292Z,9.88
2017-10-11T21:22:08.899Z,11.20
2017-10-11T21:24:36.875Z,12.63
2017-10-11T21:27:03.136Z,11.07
2017-10-11T21:29:29.978Z,11.95
2017-10-11T21:31:57.698Z,11.80
2017-10-11T21:34:23.937Z,11.12
2017-10-11T21:36:50.176Z,12.93
2017-10-11T21:39:16.918Z,10.05
2017-10-11T21:41:43.131Z,9.48
2017-10-11T21:44:11.044Z,8.95
2017-10-11T21:46:38.340Z,8.52
2017-10-11T21:49:04.706Z,8.77
2017-10-11T21:51:30.938Z,6.40
2017-10-11T21:53:57.674Z,8.27
2017-10-11T21:56:24.242Z,6.85
2017-10-11T21:58:51.297Z,8.70
2017-10-11T22:01:19.469Z,7.72
2017-10-11T22:03:48.354Z,6.97
2017-10-11T22:06:17.159Z,7.97
2017-10-11T22:08:43.366Z,8.20
2017-10-11T22:11:10.366Z,8.25
2017-10-11T22:13:37.136Z,7.97
2017-10-11T22:16:03.771Z,8.10
2017-10-11T22:18:31.399Z,7.70
2017-10-11T22:20:57.826Z,7.32
2017-10-11T22:23:24.830Z,9.07
2017-10-11T22:25:52.163Z,8.52
2017-10-11T22:28:19.199Z,8.25
2017-10-11T22:30:45.957Z,9.32
2017-10-11T22:33:12.576Z,11.30
2017-10-11T22:35:38.820Z,9.50
2017-10-11T22:38:05.179Z,9.02
2017-10-11T22:40:32.811Z,8.60
2017-10-11T22:42:59.966Z,9.55
2017-10-11T22:45:26.953Z,9.77
2017-10-11T22:47:53.175Z,9.82
2017-10-11T22:50:19.422Z,11.38
2017-10-11T22:52:45.664Z,9.13
2017-10-11T22:55:11.850Z,11.80
2017-10-11T22:57:38.698Z,9.75
2017-10-11T23:00:05.470Z,10.43
2017-10-11T23:02:33.151Z,11.52
2017-10-11T23:05:00.182Z,9.38
2017-10-11T23:07:26.979Z,10.02
2017-10-11T23:09:54.183Z,10.20
2017-10-11T23:12:20.629Z,9.45
2017-10-11T23:14:47.599Z,9.50
2017-10-11T23:17:15.558Z,9.40
2017-10-11T23:19:42.551Z,8.40
2017-10-11T23:22:09.391Z,9.13
2017-10-11T23:24:35.606Z,8.05
2017-10-11T23:27:02.754Z,7.90
2017-10-11T23:29:29.495Z,7.60
2017-10-11T23:31:56.237Z,7.37
2017-10-11T23:34:22.536Z,6.35
2017-10-11T23:36:49.981Z,7.32
2017-10-11T23:39:17.915Z,6.22
2017-10-11T23:41:44.111Z,7.75
2017-10-11T23:44:10.906Z,7.75
2017-10-11T23:46:38.562Z,8.15
2017-10-11T23:49:05.453Z,6.85
2017-10-11T23:51:32.324Z,6.10
2017-10-11T23:53:58.967Z,6.87
2017-10-11T23:56:26.154Z,7.18
2017-10-11T23:58:54.174Z,7.35
